createdAt,value
2023-01-21T00:00:44.800Z,14.05
2023-01-21T00:03:13.060Z,16.30
2023-01-21T00:05:40.437Z,15.15
2023-01-21T00:08:07.626Z,17.42
2023-01-21T00:10:34.839Z,16.05
2023-01-21T00:13:02.630Z,17.45
2023-01-21T00:15:29.839Z,16.38
2023-01-21T00:17:57.071Z,15.80
2023-01-21T00:20:24.291Z,16.05
2023-01-21T00:22:53.963Z,14.75
2023-01-21T00:25:21.266Z,14.35
2023-01-21T00:27:48.453Z,15.27
2023-01-21T00:30:15.930Z,15.82
2023-01-21T00:32:43.248Z,18.15
2023-01-21T00:35:10.540Z,14.27
2023-01-21T00:37:37.973Z,14.60
2023-01-21T00:40:06.041Z,15.20
2023-01-21T00:42:33.209Z,15.20
2023-01-21T00:45:00.521Z,15.88
2023-01-21T00:47:28.673Z,15.80
2023-01-21T00:49:55.886Z,15.70
2023-01-21T00:52:23.089Z,14.40
2023-01-21T00:54:50.213Z,15.90
2023-01-21T00:57:17.433Z,14.88
2023-01-21T00:59:44.738Z,15.45
2023-01-21T01:02:11.900Z,15.02
2023-01-21T01:04:39.242Z,15.50
2023-01-21T01:07:06.497Z,16.33
2023-01-21T01:09:33.658Z,14.85
2023-01-21T01:12:00.860Z,13.82
2023-01-21T01:14:28.053Z,15.85
2023-01-21T01:16:55.230Z,16.40
2023-01-21T01:19:22.494Z,16.13
2023-01-21T01:21:49.708Z,15.82
2023-01-21T01:24:17.507Z,16.92
2023-01-21T01:26:44.856Z,16.85
2023-01-21T01:29:13.364Z,15.48
2023-01-21T01:31:40.948Z,17.05
2023-01-21T01:34:08.268Z,18.63
2023-01-21T01:36:35.644Z,18.20
2023-01-21T01:39:02.773Z,19.08
2023-01-21T01:41:30.355Z,17.85
2023-01-21T01:44:00.574Z,18.55
2023-01-21T01:46:32.668Z,22.48
2023-01-21T01:49:03.140Z,20.35
2023-01-21T01:51:33.490Z,20.98
2023-01-21T01:54:01.176Z,22.13
2023-01-21T01:56:29.426Z,21.27
2023-01-21T01:58:59.536Z,27.20
2023-01-21T02:01:26.738Z,24.15
2023-01-21T02:03:59.508Z,24.63
2023-01-21T02:06:27.563Z,33.22
2023-01-21T02:08:58.233Z,25.20
2023-01-21T02:11:25.762Z,26.88
2023-01-21T02:13:54.071Z,27.65
2023-01-21T02:16:39.599Z,25.42
2023-01-21T02:19:32.682Z,25.80
2023-01-21T02:21:59.792Z,25.73
2023-01-21T02:24:59.257Z,26.60
2023-01-21T02:27:35.774Z,24.92
2023-01-21T02:30:05.977Z,25.60
2023-01-21T02:32:36.256Z,24.88
2023-01-21T02:35:15.639Z,24.52
2023-01-21T02:37:52.630Z,25.02
2023-01-21T02:40:28.614Z,24.92
2023-01-21T02:42:59.968Z,23.60
2023-01-21T02:45:40.310Z,27.88
2023-01-21T02:48:10.688Z,26.92
2023-01-21T02:50:46.279Z,26.13
2023-01-21T02:53:33.015Z,27.92
2023-01-21T02:56:03.538Z,28.17
2023-01-21T02:58:33.463Z,24.40
2023-01-21T03:01:12.358Z,26.85
2023-01-21T03:03:58.332Z,26.85
2023-01-21T03:06:30.249Z,25.27
2023-01-21T03:09:00.552Z,24.95
2023-01-21T03:11:27.737Z,25.25
2023-01-21T03:14:17.610Z,28.67
2023-01-21T03:16:58.490Z,25.83
2023-01-21T03:19:32.496Z,25.33
2023-01-21T03:22:01.627Z,27.02
2023-01-21T03:24:30.500Z,26.00
2023-01-21T03:27:00.161Z,27.08
2023-01-21T03:29:28.334Z,26.48
2023-01-21T03:31:58.763Z,27.67
2023-01-21T03:34:28.466Z,28.25
2023-01-21T03:36:58.781Z,27.33
2023-01-21T03:39:32.231Z,26.50
2023-01-21T03:41:59.564Z,26.73
2023-01-21T03:44:27.272Z,27.27
2023-01-21T03:47:02.545Z,27.60
2023-01-21T03:49:33.401Z,26.23
2023-01-21T03:52:01.966Z,27.20
2023-01-21T03:54:29.178Z,27.05
2023-01-21T03:56:59.023Z,26.85
2023-01-21T03:59:26.254Z,26.13
2023-01-21T04:01:53.444Z,27.05
2023-01-21T04:04:20.649Z,26.80
2023-01-21T04:06:47.913Z,25.73
2023-01-21T04:09:15.119Z,25.60
2023-01-21T04:11:42.309Z,24.33
2023-01-21T04:14:09.589Z,24.70
2023-01-21T04:16:36.841Z,24.50
2023-01-21T04:19:04.097Z,23.85
2023-01-21T04:21:31.343Z,24.42
2023-01-21T04:23:58.514Z,25.75
2023-01-21T04:26:25.879Z,23.50
2023-01-21T04:28:53.035Z,24.00
2023-01-21T04:31:20.231Z,24.73
2023-01-21T04:33:50.450Z,24.58
2023-01-21T04:36:17.670Z,24.27
2023-01-21T04:38:44.874Z,21.88
2023-01-21T04:41:12.014Z,23.48
2023-01-21T04:43:39.647Z,24.17
2023-01-21T04:46:06.857Z,23.70
2023-01-21T04:48:34.122Z,22.42
2023-01-21T04:51:01.369Z,22.35
2023-01-21T04:53:28.752Z,22.92
2023-01-21T04:55:55.968Z,22.40
2023-01-21T04:58:23.149Z,22.27
2023-01-21T05:00:50.370Z,22.60
2023-01-21T05:03:17.504Z,21.83
2023-01-21T05:05:44.731Z,22.42
2023-01-21T05:08:11.969Z,21.95
2023-01-21T05:10:39.182Z,23.80
2023-01-21T05:13:06.415Z,23.30
2023-01-21T05:15:33.653Z,24.58
2023-01-21T05:18:01.165Z,24.00
2023-01-21T05:20:28.425Z,23.98
2023-01-21T05:22:55.611Z,23.55
2023-01-21T05:25:22.817Z,24.27
2023-01-21T05:27:53.780Z,25.60
2023-01-21T05:30:22.009Z,24.30
2023-01-21T05:32:52.931Z,24.92
2023-01-21T05:35:24.327Z,23.15
2023-01-21T05:37:52.133Z,24.27
2023-01-21T05:40:19.766Z,24.40
2023-01-21T05:42:47.545Z,25.90
2023-01-21T05:45:14.848Z,27.58
2023-01-21T05:47:42.216Z,29.00
2023-01-21T05:50:10.029Z,31.50
2023-01-21T05:52:37.454Z,35.47
2023-01-21T05:55:05.079Z,48.90
2023-01-21T05:57:32.634Z,34.30
2023-01-21T06:00:00.082Z,31.63
2023-01-21T06:02:27.924Z,56.95
2023-01-21T06:04:55.263Z,27.90
2023-01-21T06:07:22.472Z,29.13
2023-01-21T06:09:50.293Z,29.63
2023-01-21T06:12:17.504Z,34.05
2023-01-21T06:14:44.675Z,31.77
2023-01-21T06:17:11.908Z,30.90
2023-01-21T06:19:39.094Z,30.35
2023-01-21T06:22:06.247Z,32.00
2023-01-21T06:24:33.411Z,31.73
2023-01-21T06:27:00.618Z,33.03
2023-01-21T06:29:28.103Z,30.75
2023-01-21T06:31:55.397Z,30.95
2023-01-21T06:34:22.648Z,30.25
2023-01-21T06:36:49.772Z,29.25
2023-01-21T06:39:17.041Z,28.35
2023-01-21T06:41:44.185Z,26.98
2023-01-21T06:44:11.402Z,27.55
2023-01-21T06:46:43.352Z,26.20
2023-01-21T06:49:16.013Z,26.10
2023-01-21T06:51:43.367Z,25.02
2023-01-21T06:54:13.535Z,26.45
2023-01-21T06:56:43.621Z,25.35
2023-01-21T06:59:10.951Z,23.88
2023-01-21T07:01:38.178Z,23.73
2023-01-21T07:04:05.471Z,23.92
2023-01-21T07:06:32.674Z,24.58
2023-01-21T07:08:59.874Z,24.70
2023-01-21T07:11:26.990Z,24.60
2023-01-21T07:13:54.125Z,24.75
2023-01-21T07:16:21.336Z,24.98
2023-01-21T07:18:48.528Z,25.55
2023-01-21T07:21:16.122Z,25.27
2023-01-21T07:23:43.455Z,26.50
2023-01-21T07:26:10.579Z,26.65
2023-01-21T07:28:37.711Z,28.83
2023-01-21T07:31:05.106Z,30.73
2023-01-21T07:33:32.361Z,28.58
2023-01-21T07:35:59.472Z,29.30
2023-01-21T07:38:26.630Z,30.08
2023-01-21T07:40:53.819Z,26.17
2023-01-21T07:43:20.983Z,24.13
2023-01-21T07:45:48.297Z,23.60
2023-01-21T07:48:15.545Z,24.92
2023-01-21T07:50:42.686Z,24.88
2023-01-21T07:53:11.115Z,23.33
2023-01-21T07:55:38.259Z,22.40
2023-01-21T07:58:05.467Z,23.67
2023-01-21T08:00:32.630Z,22.05
2023-01-21T08:02:59.850Z,21.02
2023-01-21T08:05:27.358Z,22.33
2023-01-21T08:07:57.588Z,20.05
2023-01-21T08:10:24.796Z,21.13
2023-01-21T08:12:52.009Z,18.05
2023-01-21T08:15:19.569Z,16.83
2023-01-21T08:17:48.735Z,16.08
2023-01-21T08:20:16.013Z,16.30
2023-01-21T08:22:43.124Z,15.95
2023-01-21T08:25:10.795Z,16.20
2023-01-21T08:27:38.132Z,18.00
2023-01-21T08:30:05.551Z,15.15
2023-01-21T08:32:32.716Z,18.92
2023-01-21T08:34:59.966Z,13.73
2023-01-21T08:37:27.221Z,13.73
2023-01-21T08:39:56.192Z,16.23
2023-01-21T08:42:23.550Z,14.93
2023-01-21T08:44:51.416Z,16.77
2023-01-21T08:47:18.897Z,15.25
2023-01-21T08:49:46.582Z,14.70
2023-01-21T08:52:14.107Z,14.65
2023-01-21T08:54:41.496Z,17.67
2023-01-21T08:57:10.116Z,18.33
2023-01-21T08:59:44.420Z,13.57
2023-01-21T09:02:12.585Z,15.00
2023-01-21T09:04:40.041Z,13.65
2023-01-21T09:07:07.165Z,15.27
2023-01-21T09:09:34.990Z,16.17
2023-01-21T09:12:02.394Z,16.00
2023-01-21T09:14:30.983Z,13.40
2023-01-21T09:16:58.174Z,12.05
2023-01-21T09:19:25.607Z,26.40
2023-01-21T09:21:54.349Z,17.50
2023-01-21T09:24:21.516Z,13.93
2023-01-21T09:26:48.669Z,15.38
2023-01-21T09:29:15.824Z,16.75
2023-01-21T09:31:43.061Z,12.57
2023-01-21T09:34:10.939Z,15.30
2023-01-21T09:36:38.231Z,18.23
2023-01-21T09:39:05.872Z,15.18
2023-01-21T09:41:40.434Z,12.48
2023-01-21T09:44:13.557Z,11.52
2023-01-21T09:46:53.105Z,14.13
2023-01-21T09:49:23.673Z,36.30
2023-01-21T09:51:52.487Z,15.93
2023-01-21T09:54:23.003Z,12.43
2023-01-21T09:56:57.582Z,16.15
2023-01-21T09:59:39.138Z,12.48
2023-01-21T10:02:10.206Z,18.73
2023-01-21T10:04:45.799Z,21.00
2023-01-21T10:07:16.879Z,26.55
2023-01-21T10:09:50.245Z,31.92
2023-01-21T10:12:17.417Z,21.60
2023-01-21T10:14:51.567Z,15.60
2023-01-21T10:17:42.298Z,38.15
2023-01-21T10:20:12.735Z,42.97
2023-01-21T10:22:43.014Z,21.73
2023-01-21T10:25:19.513Z,20.40
2023-01-21T10:27:46.776Z,25.67
2023-01-21T10:30:21.829Z,17.20
2023-01-21T10:32:50.971Z,16.15
2023-01-21T10:35:19.107Z,16.60
2023-01-21T10:37:55.487Z,12.90
2023-01-21T10:40:42.628Z,12.05
2023-01-21T10:43:09.869Z,15.25
2023-01-21T10:45:44.578Z,18.83
2023-01-21T10:48:15.006Z,12.73
2023-01-21T10:51:00.612Z,15.18
2023-01-21T10:53:37.053Z,17.85
2023-01-21T10:56:12.905Z,18.30
2023-01-21T10:59:12.705Z,18.98
2023-01-21T11:01:41.909Z,15.85
2023-01-21T11:04:17.990Z,26.33
2023-01-21T11:06:46.505Z,18.00
2023-01-21T11:09:14.905Z,15.30
2023-01-21T11:11:43.066Z,18.60
2023-01-21T11:14:10.817Z,18.08
2023-01-21T11:16:38.488Z,79.90
2023-01-21T11:19:07.401Z,77.03
2023-01-21T11:21:34.971Z,72.78
2023-01-21T11:24:03.778Z,32.42
2023-01-21T11:26:30.941Z,21.00
2023-01-21T11:29:15.084Z,32.20
2023-01-21T11:31:42.981Z,51.00
2023-01-21T11:34:13.194Z,18.83
2023-01-21T11:36:54.267Z,27.90
2023-01-21T11:39:23.466Z,14.43
2023-01-21T11:41:58.415Z,32.05
2023-01-21T11:44:26.017Z,50.65
2023-01-21T11:46:53.380Z,34.58
2023-01-21T11:49:25.501Z,57.78
2023-01-21T11:52:06.364Z,21.95
2023-01-21T11:54:38.491Z,14.88
2023-01-21T11:57:06.211Z,15.57
2023-01-21T11:59:36.135Z,15.25
2023-01-21T12:02:08.993Z,14.85
2023-01-21T12:04:36.893Z,16.27
2023-01-21T12:07:05.169Z,18.77
2023-01-21T12:09:32.472Z,14.82
2023-01-21T12:12:11.883Z,15.05
2023-01-21T12:14:52.095Z,14.63
2023-01-21T12:17:22.377Z,14.45
2023-01-21T12:19:57.914Z,15.27
2023-01-21T12:22:36.121Z,17.10
2023-01-21T12:25:22.386Z,13.27
2023-01-21T12:27:55.634Z,15.70
2023-01-21T12:32:53.369Z,13.75
2023-01-21T12:35:23.544Z,13.23
2023-01-21T12:37:54.364Z,14.45
2023-01-21T12:40:40.070Z,14.55
2023-01-21T12:43:13.807Z,14.32
2023-01-21T12:45:45.260Z,12.73
2023-01-21T12:48:21.440Z,14.93
2023-01-21T12:50:52.409Z,14.73
2023-01-21T12:53:28.958Z,14.15
2023-01-21T12:56:13.796Z,14.43
2023-01-21T12:58:46.636Z,12.68
2023-01-21T13:01:19.462Z,13.57
2023-01-21T13:03:54.591Z,13.50
2023-01-21T13:06:33.576Z,14.25
2023-01-21T13:09:28.631Z,13.32
2023-01-21T13:11:58.954Z,13.63
2023-01-21T13:14:26.151Z,14.10
2023-01-21T13:17:04.663Z,13.48
2023-01-21T13:19:34.636Z,14.52
2023-01-21T13:22:06.710Z,13.10
2023-01-21T13:24:53.829Z,14.52
2023-01-21T13:27:30.165Z,12.68
2023-01-21T13:30:03.458Z,14.95
2023-01-21T13:35:19.677Z,14.15
2023-01-21T13:37:55.292Z,16.45
2023-01-21T13:40:22.450Z,12.88
2023-01-21T13:42:56.431Z,14.57
2023-01-21T13:45:23.833Z,14.05
2023-01-21T13:48:11.716Z,13.95
2023-01-21T13:50:49.592Z,14.18
2023-01-21T13:53:35.734Z,14.40
2023-01-21T13:56:18.719Z,13.90
2023-01-21T13:58:54.670Z,14.63
2023-01-21T14:01:36.330Z,13.85
2023-01-21T14:04:11.035Z,14.50
2023-01-21T14:06:45.948Z,14.57
2023-01-21T14:09:33.194Z,14.13
2023-01-21T14:12:18.065Z,13.70
2023-01-21T14:14:57.540Z,14.10
2023-01-21T14:17:33.167Z,13.52
2023-01-21T14:20:09.982Z,14.93
2023-01-21T14:22:46.488Z,13.60
2023-01-21T14:25:13.557Z,15.48
2023-01-21T14:27:48.627Z,13.13
2023-01-21T14:30:15.990Z,14.98
2023-01-21T14:32:49.948Z,15.68
2023-01-21T14:35:36.448Z,14.90
2023-01-21T14:38:22.616Z,14.02
2023-01-21T14:40:50.999Z,13.77
2023-01-21T14:43:33.740Z,14.30
2023-01-21T14:46:01.740Z,13.25
2023-01-21T14:48:28.985Z,14.30
2023-01-21T14:51:09.547Z,15.98
2023-01-21T14:53:50.174Z,23.20
2023-01-21T14:56:28.943Z,13.98
2023-01-21T14:59:00.717Z,13.70
2023-01-21T15:01:34.188Z,14.00
2023-01-21T15:04:05.031Z,14.30
2023-01-21T15:06:32.765Z,16.02
2023-01-21T15:09:01.175Z,14.75
2023-01-21T15:11:31.377Z,14.63
2023-01-21T15:14:11.097Z,13.75
2023-01-21T15:16:40.098Z,13.50
2023-01-21T15:19:11.234Z,13.27
2023-01-21T15:21:38.454Z,13.27
2023-01-21T15:24:20.221Z,15.88
2023-01-21T15:27:06.241Z,15.82
2023-01-21T15:29:35.482Z,13.75
2023-01-21T15:32:19.822Z,15.70
2023-01-21T15:34:48.142Z,12.25
2023-01-21T15:37:18.342Z,87.85
2023-01-21T15:39:45.512Z,62.63
2023-01-21T15:42:19.095Z,17.10
2023-01-21T15:44:46.196Z,41.35
2023-01-21T15:47:35.629Z,53.38
2023-01-21T15:50:21.563Z,60.42
2023-01-21T15:52:58.711Z,28.27
2023-01-21T15:55:30.644Z,24.02
2023-01-21T15:58:19.591Z,53.90
2023-01-21T16:00:56.593Z,13.25
2023-01-21T16:03:26.801Z,28.45
2023-01-21T16:06:14.276Z,13.52
2023-01-21T16:08:50.448Z,36.20
2023-01-21T16:11:23.957Z,25.33
2023-01-21T16:14:13.105Z,18.55
2023-01-21T16:16:53.301Z,29.23
2023-01-21T16:19:29.098Z,15.82
2023-01-21T16:21:58.444Z,13.25
2023-01-21T16:24:27.511Z,12.70
2023-01-21T16:26:54.801Z,13.85
2023-01-21T16:29:22.148Z,15.88
2023-01-21T16:31:59.196Z,15.57
2023-01-21T16:34:32.624Z,13.73
2023-01-21T16:39:26.821Z,12.10
2023-01-21T16:42:05.552Z,13.45
2023-01-21T16:44:33.837Z,12.40
2023-01-21T16:47:01.365Z,11.75
2023-01-21T16:49:28.910Z,13.48
2023-01-21T16:51:57.781Z,11.98
2023-01-21T16:54:26.402Z,11.98
2023-01-21T16:56:58.438Z,15.15
2023-01-21T16:59:26.919Z,16.98
2023-01-21T17:01:54.806Z,16.25
2023-01-21T17:04:22.103Z,16.33
2023-01-21T17:06:49.955Z,16.30
2023-01-21T17:09:24.240Z,15.13
2023-01-21T17:11:51.505Z,14.60
2023-01-21T17:14:26.866Z,14.23
2023-01-21T17:16:55.009Z,18.35
2023-01-21T17:19:26.104Z,15.10
2023-01-21T17:21:55.571Z,17.75
2023-01-21T17:24:22.795Z,15.90
2023-01-21T17:26:54.626Z,16.27
2023-01-21T17:29:26.545Z,17.05
2023-01-21T17:32:03.380Z,18.60
2023-01-21T17:34:31.867Z,18.52
2023-01-21T17:36:59.429Z,17.70
2023-01-21T17:39:45.469Z,16.85
2023-01-21T17:42:20.108Z,21.77
2023-01-21T17:44:48.486Z,18.42
2023-01-21T17:47:24.367Z,18.90
2023-01-21T17:49:59.931Z,15.80
2023-01-21T17:52:27.502Z,17.95
2023-01-21T17:55:13.542Z,26.13
2023-01-21T17:57:40.742Z,16.73
2023-01-21T18:00:26.692Z,16.48
2023-01-21T18:02:54.083Z,15.75
2023-01-21T18:05:21.584Z,14.40
2023-01-21T18:07:48.815Z,15.25
2023-01-21T18:10:18.440Z,15.45
2023-01-21T18:12:45.707Z,14.85
2023-01-21T18:15:14.621Z,18.15
2023-01-21T18:17:46.319Z,15.80
2023-01-21T18:20:17.929Z,13.68
2023-01-21T18:22:46.088Z,14.70
2023-01-21T18:25:14.290Z,13.35
2023-01-21T18:27:42.081Z,14.25
2023-01-21T18:30:16.590Z,13.63
2023-01-21T18:32:44.016Z,12.45
2023-01-21T18:35:12.676Z,12.60
2023-01-21T18:37:39.884Z,13.10
2023-01-21T18:40:07.504Z,14.10
2023-01-21T18:42:34.683Z,14.73
2023-01-21T18:45:01.863Z,12.32
2023-01-21T18:47:29.101Z,12.32
2023-01-21T18:49:57.849Z,12.30
2023-01-21T18:52:28.881Z,11.25
2023-01-21T18:54:56.112Z,10.85
2023-01-21T18:57:23.695Z,10.82
2023-01-21T18:59:50.879Z,11.43
2023-01-21T19:02:19.752Z,10.90
2023-01-21T19:04:47.655Z,11.73
2023-01-21T19:07:15.560Z,12.55
2023-01-21T19:09:46.114Z,15.82
2023-01-21T19:12:14.439Z,9.98
2023-01-21T19:14:41.664Z,9.70
2023-01-21T19:17:20.512Z,24.00
2023-01-21T19:19:47.774Z,9.75
2023-01-21T19:22:15.645Z,8.98
2023-01-21T19:24:43.112Z,10.43
2023-01-21T19:27:14.797Z,10.30
2023-01-21T19:29:42.049Z,8.02
2023-01-21T19:32:14.750Z,8.65
2023-01-21T19:34:42.734Z,9.27
2023-01-21T19:37:15.069Z,8.57
2023-01-21T19:39:42.250Z,7.20
2023-01-21T19:42:11.470Z,9.30
2023-01-21T19:44:41.598Z,7.18
2023-01-21T19:47:24.270Z,7.43
2023-01-21T19:49:51.619Z,6.93
2023-01-21T19:52:19.003Z,5.75
2023-01-21T19:54:46.409Z,7.13
2023-01-21T19:57:14.548Z,6.20
2023-01-21T19:59:42.503Z,5.43
2023-01-21T20:02:13.168Z,5.60
2023-01-21T20:04:40.658Z,5.00
2023-01-21T20:07:08.467Z,5.07
2023-01-21T20:09:35.709Z,6.25
2023-01-21T20:12:04.414Z,5.25
2023-01-21T20:14:33.691Z,5.03
2023-01-21T20:17:03.067Z,5.25
2023-01-21T20:19:30.450Z,4.70
2023-01-21T20:22:02.869Z,4.53
2023-01-21T20:24:34.125Z,4.20
2023-01-21T20:27:06.533Z,4.22
2023-01-21T20:29:35.999Z,3.92
2023-01-21T20:32:08.152Z,4.15
2023-01-21T20:34:39.230Z,4.38
2023-01-21T20:39:51.672Z,3.75
2023-01-21T20:42:19.405Z,4.40
2023-01-21T20:44:47.366Z,3.80
2023-01-21T20:47:32.620Z,3.70
2023-01-21T20:50:14.229Z,3.47
2023-01-21T20:52:41.482Z,3.50
2023-01-21T20:55:09.057Z,3.72
2023-01-21T20:57:36.456Z,3.78
2023-01-21T21:00:14.603Z,3.88
2023-01-21T21:02:42.010Z,3.70
2023-01-21T21:05:11.816Z,3.80
2023-01-21T21:07:39.403Z,3.88
2023-01-21T21:10:08.091Z,3.55
2023-01-21T21:12:37.543Z,3.95
2023-01-21T21:15:08.094Z,3.72
2023-01-21T21:17:38.238Z,3.25
2023-01-21T21:22:59.224Z,3.72
2023-01-21T21:25:29.443Z,4.20
2023-01-21T21:27:57.134Z,4.07
2023-01-21T21:30:36.994Z,3.65
2023-01-21T21:33:06.012Z,3.63
2023-01-21T21:35:37.275Z,3.88
2023-01-21T21:38:06.756Z,3.80
2023-01-21T21:40:38.145Z,4.00
2023-01-21T21:43:24.181Z,4.03
2023-01-21T21:46:10.514Z,3.42
2023-01-21T21:48:37.968Z,3.78
2023-01-21T21:51:11.313Z,3.45
2023-01-21T21:56:19.933Z,3.10
2023-01-21T21:58:47.975Z,3.13
2023-01-21T22:01:17.552Z,4.03
2023-01-21T22:03:47.828Z,5.95
2023-01-21T22:06:15.609Z,6.57
2023-01-21T22:08:44.047Z,4.20
2023-01-21T22:11:19.754Z,3.25
2023-01-21T22:13:58.934Z,2.70
2023-01-21T22:16:28.828Z,3.67
2023-01-21T22:18:57.727Z,3.33
2023-01-21T22:21:29.180Z,2.97
2023-01-21T22:23:58.361Z,2.90
2023-01-21T22:26:27.893Z,3.65
2023-01-21T22:28:55.860Z,4.00
2023-01-21T22:31:27.872Z,3.72
2023-01-21T22:33:56.485Z,4.03
2023-01-21T22:36:24.905Z,2.92
2023-01-21T22:38:56.391Z,4.05
2023-01-21T22:41:24.667Z,4.50
2023-01-21T22:43:54.293Z,6.03
2023-01-21T22:46:26.277Z,3.65
2023-01-21T22:49:00.839Z,3.60
2023-01-21T22:51:28.796Z,3.45
2023-01-21T22:53:56.426Z,5.35
2023-01-21T22:56:39.791Z,2.97
2023-01-21T22:59:12.915Z,2.90
2023-01-21T23:01:40.399Z,3.13
2023-01-21T23:04:07.755Z,2.50
2023-01-21T23:06:36.809Z,3.05
2023-01-21T23:09:08.149Z,2.58
2023-01-21T23:11:38.407Z,2.95
2023-01-21T23:14:05.757Z,3.03
2023-01-21T23:16:36.386Z,2.65
2023-01-21T23:19:03.756Z,2.67
2023-01-21T23:21:31.380Z,2.40
2023-01-21T23:23:59.389Z,2.80
2023-01-21T23:26:26.743Z,2.88
2023-01-21T23:28:58.016Z,2.80
2023-01-21T23:31:25.601Z,2.55
2023-01-21T23:33:53.704Z,3.17
2023-01-21T23:36:21.390Z,3.00
2023-01-21T23:38:48.927Z,3.10
2023-01-21T23:41:19.163Z,3.13
2023-01-21T23:43:46.520Z,3.10
2023-01-21T23:46:16.678Z,2.97
2023-01-21T23:48:44.279Z,3.05
2023-01-21T23:51:13.080Z,3.50
2023-01-21T23:53:40.533Z,3.22
2023-01-21T23:56:13.146Z,4.03
2023-01-21T23:58:40.602Z,4.00
